sensor_id;sensor_type;location;lat;lon;timestamp;temperature;humidity
52675;DHT22;38569;52.722;6.440;2022-07-22T00:02:21;15.80;99.90
52675;DHT22;38569;52.722;6.440;2022-07-22T00:04:47;15.80;99.90
52675;DHT22;38569;52.722;6.440;2022-07-22T00:07:13;15.90;99.90
52675;DHT22;38569;52.722;6.440;2022-07-22T00:09:39;16.00;99.90
52675;DHT22;38569;52.722;6.440;2022-07-22T00:12:05;16.00;99.90
52675;DHT22;38569;52.722;6.440;2022-07-22T00:14:31;16.10;99.90
52675;DHT22;38569;52.722;6.440;2022-07-22T00:16:56;16.10;99.90
52675;DHT22;38569;52.722;6.440;2022-07-22T00:19:22;16.10;99.90
52675;DHT22;38569;52.722;6.440;2022-07-22T00:21:50;16.10;99.90
52675;DHT22;38569;52.722;6.440;2022-07-22T00:24:16;16.10;99.90
52675;DHT22;38569;52.722;6.440;2022-07-22T00:26:42;16.10;99.90
52675;DHT22;38569;52.722;6.440;2022-07-22T00:29:07;16.20;99.90
52675;DHT22;38569;52.722;6.440;2022-07-22T00:31:33;16.20;99.90
52675;DHT22;38569;52.722;6.440;2022-07-22T00:34:00;16.10;99.90
52675;DHT22;38569;52.722;6.440;2022-07-22T00:36:29;16.20;99.90
52675;DHT22;38569;52.722;6.440;2022-07-22T00:38:55;16.20;99.90
52675;DHT22;38569;52.722;6.440;2022-07-22T00:41:21;16.20;99.90
52675;DHT22;38569;52.722;6.440;2022-07-22T00:43:52;16.20;99.90
52675;DHT22;38569;52.722;6.440;2022-07-22T00:46:19;16.20;99.90
52675;DHT22;38569;52.722;6.440;2022-07-22T00:48:45;16.10;99.90
52675;DHT22;38569;52.722;6.440;2022-07-22T00:51:10;16.10;99.90
52675;DHT22;38569;52.722;6.440;2022-07-22T00:53:36;16.20;99.90
52675;DHT22;38569;52.722;6.440;2022-07-22T00:56:02;16.10;99.90
52675;DHT22;38569;52.722;6.440;2022-07-22T00:58:29;16.10;99.90
52675;DHT22;38569;52.722;6.440;2022-07-22T01:00:55;16.10;99.90
52675;DHT22;38569;52.722;6.440;2022-07-22T01:03:21;16.00;99.90
52675;DHT22;38569;52.722;6.440;2022-07-22T01:05:47;16.00;99.90
52675;DHT22;38569;52.722;6.440;2022-07-22T01:08:12;16.00;99.90
52675;DHT22;38569;52.722;6.440;2022-07-22T01:10:38;15.90;99.90
52675;DHT22;38569;52.722;6.440;2022-07-22T01:13:05;15.90;99.90
52675;DHT22;38569;52.722;6.440;2022-07-22T01:15:31;15.90;99.90
52675;DHT22;38569;52.722;6.440;2022-07-22T01:17:58;15.90;99.90
52675;DHT22;38569;52.722;6.440;2022-07-22T01:20:24;15.90;99.90
52675;DHT22;38569;52.722;6.440;2022-07-22T01:22:51;15.90;99.90
52675;DHT22;38569;52.722;6.440;2022-07-22T01:25:17;15.90;99.90
52675;DHT22;38569;52.722;6.440;2022-07-22T01:27:43;15.90;99.90
52675;DHT22;38569;52.722;6.440;2022-07-22T01:30:09;15.90;99.90
52675;DHT22;38569;52.722;6.440;2022-07-22T01:32:35;15.90;99.90
52675;DHT22;38569;52.722;6.440;2022-07-22T01:35:00;15.80;99.90
52675;DHT22;38569;52.722;6.440;2022-07-22T01:37:26;15.80;99.90
52675;DHT22;38569;52.722;6.440;2022-07-22T01:39:52;15.80;99.90
52675;DHT22;38569;52.722;6.440;2022-07-22T01:42:17;15.90;99.90
52675;DHT22;38569;52.722;6.440;2022-07-22T01:44:43;15.80;99.90
52675;DHT22;38569;52.722;6.440;2022-07-22T01:47:09;15.90;99.90
52675;DHT22;38569;52.722;6.440;2022-07-22T01:49:35;15.90;99.90
52675;DHT22;38569;52.722;6.440;2022-07-22T01:52:03;15.90;99.90
52675;DHT22;38569;52.722;6.440;2022-07-22T01:54:28;15.90;99.90
52675;DHT22;38569;52.722;6.440;2022-07-22T01:56:54;15.90;99.90
52675;DHT22;38569;52.722;6.440;2022-07-22T01:59:20;15.80;99.90
52675;DHT22;38569;52.722;6.440;2022-07-22T02:01:46;15.80;99.90
52675;DHT22;38569;52.722;6.440;2022-07-22T02:04:11;15.80;99.90
52675;DHT22;38569;52.722;6.440;2022-07-22T02:06:37;15.80;99.90
52675;DHT22;38569;52.722;6.440;2022-07-22T02:09:03;15.80;99.90
52675;DHT22;38569;52.722;6.440;2022-07-22T02:11:29;15.80;99.90
52675;DHT22;38569;52.722;6.440;2022-07-22T02:13:55;15.80;99.90
52675;DHT22;38569;52.722;6.440;2022-07-22T02:16:21;15.80;99.90
52675;DHT22;38569;52.722;6.440;2022-07-22T02:18:46;15.90;99.90
52675;DHT22;38569;52.722;6.440;2022-07-22T02:21:12;15.90;99.90
52675;DHT22;38569;52.722;6.440;2022-07-22T02:23:38;15.90;99.90
52675;DHT22;38569;52.722;6.440;2022-07-22T02:26:03;15.90;99.90
52675;DHT22;38569;52.722;6.440;2022-07-22T02:28:29;15.90;99.90
52675;DHT22;38569;52.722;6.440;2022-07-22T02:30:55;15.90;99.90
52675;DHT22;38569;52.722;6.440;2022-07-22T02:33:20;15.90;99.90
52675;DHT22;38569;52.722;6.440;2022-07-22T02:35:46;15.90;99.90
52675;DHT22;38569;52.722;6.440;2022-07-22T02:38:12;15.80;99.90
52675;DHT22;38569;52.722;6.440;2022-07-22T02:40:38;15.80;99.90
52675;DHT22;38569;52.722;6.440;2022-07-22T02:43:04;15.80;99.90
52675;DHT22;38569;52.722;6.440;2022-07-22T02:45:32;15.80;99.90
52675;DHT22;38569;52.722;6.440;2022-07-22T02:47:58;15.80;99.90
52675;DHT22;38569;52.722;6.440;2022-07-22T02:50:24;15.80;99.90
52675;DHT22;38569;52.722;6.440;2022-07-22T02:52:51;15.80;99.90
52675;DHT22;38569;52.722;6.440;2022-07-22T02:55:17;15.80;99.90
52675;DHT22;38569;52.722;6.440;2022-07-22T02:57:43;15.80;99.90
52675;DHT22;38569;52.722;6.440;2022-07-22T03:00:10;15.80;99.90
52675;DHT22;38569;52.722;6.440;2022-07-22T03:02:37;15.80;99.90
52675;DHT22;38569;52.722;6.440;2022-07-22T03:05:04;15.90;99.90
52675;DHT22;38569;52.722;6.440;2022-07-22T03:07:29;15.90;99.90
52675;DHT22;38569;52.722;6.440;2022-07-22T03:09:55;15.90;99.90
52675;DHT22;38569;52.722;6.440;2022-07-22T03:12:21;15.90;99.90
52675;DHT22;38569;52.722;6.440;2022-07-22T03:14:46;15.90;99.90
52675;DHT22;38569;52.722;6.440;2022-07-22T03:17:12;15.90;99.90
52675;DHT22;38569;52.722;6.440;2022-07-22T03:19:38;15.80;99.90
52675;DHT22;38569;52.722;6.440;2022-07-22T03:22:03;15.90;99.90
52675;DHT22;38569;52.722;6.440;2022-07-22T03:24:29;15.90;99.90
52675;DHT22;38569;52.722;6.440;2022-07-22T03:26:55;15.90;99.90
52675;DHT22;38569;52.722;6.440;2022-07-22T03:29:20;16.00;99.90
52675;DHT22;38569;52.722;6.440;2022-07-22T03:31:46;15.90;99.90
52675;DHT22;38569;52.722;6.440;2022-07-22T03:34:12;16.00;99.90
52675;DHT22;38569;52.722;6.440;2022-07-22T03:36:37;16.00;99.90
52675;DHT22;38569;52.722;6.440;2022-07-22T03:39:03;16.00;99.90
52675;DHT22;38569;52.722;6.440;2022-07-22T03:41:29;16.00;99.90
52675;DHT22;38569;52.722;6.440;2022-07-22T03:43:55;16.00;99.90
52675;DHT22;38569;52.722;6.440;2022-07-22T03:46:20;15.90;99.90
52675;DHT22;38569;52.722;6.440;2022-07-22T03:48:46;15.90;99.90
52675;DHT22;38569;52.722;6.440;2022-07-22T03:51:12;15.90;99.90
52675;DHT22;38569;52.722;6.440;2022-07-22T03:53:37;15.90;99.90
52675;DHT22;38569;52.722;6.440;2022-07-22T03:56:03;15.90;99.90
52675;DHT22;38569;52.722;6.440;2022-07-22T03:58:29;15.90;99.90
52675;DHT22;38569;52.722;6.440;2022-07-22T04:00:55;15.90;99.90
52675;DHT22;38569;52.722;6.440;2022-07-22T04:03:21;15.90;99.90
52675;DHT22;38569;52.722;6.440;2022-07-22T04:05:46;15.90;99.90
52675;DHT22;38569;52.722;6.440;2022-07-22T04:08:12;15.90;99.90
52675;DHT22;38569;52.722;6.440;2022-07-22T04:10:38;15.90;99.90
52675;DHT22;38569;52.722;6.440;2022-07-22T04:13:04;16.00;99.90
52675;DHT22;38569;52.722;6.440;2022-07-22T04:15:30;16.00;99.90
52675;DHT22;38569;52.722;6.440;2022-07-22T04:17:56;16.00;99.90
52675;DHT22;38569;52.722;6.440;2022-07-22T04:20:21;15.80;99.90
52675;DHT22;38569;52.722;6.440;2022-07-22T04:22:47;15.80;99.90
52675;DHT22;38569;52.722;6.440;2022-07-22T04:25:13;15.80;99.90
52675;DHT22;38569;52.722;6.440;2022-07-22T04:27:39;15.80;99.90
52675;DHT22;38569;52.722;6.440;2022-07-22T04:30:06;15.90;99.90
52675;DHT22;38569;52.722;6.440;2022-07-22T04:32:32;15.90;99.90
52675;DHT22;38569;52.722;6.440;2022-07-22T04:34:58;16.00;99.90
52675;DHT22;38569;52.722;6.440;2022-07-22T04:37:24;16.00;99.90
52675;DHT22;38569;52.722;6.440;2022-07-22T04:39:49;16.10;99.90
52675;DHT22;38569;52.722;6.440;2022-07-22T04:42:15;16.10;99.90
52675;DHT22;38569;52.722;6.440;2022-07-22T04:44:41;16.10;99.90
52675;DHT22;38569;52.722;6.440;2022-07-22T04:47:06;16.10;99.90
52675;DHT22;38569;52.722;6.440;2022-07-22T04:49:32;16.20;99.90
52675;DHT22;38569;52.722;6.440;2022-07-22T04:51:58;16.10;99.90
52675;DHT22;38569;52.722;6.440;2022-07-22T04:54:23;16.10;99.90
52675;DHT22;38569;52.722;6.440;2022-07-22T04:56:49;16.10;99.90
52675;DHT22;38569;52.722;6.440;2022-07-22T04:59:15;16.10;99.90
52675;DHT22;38569;52.722;6.440;2022-07-22T05:01:40;16.10;99.90
52675;DHT22;38569;52.722;6.440;2022-07-22T05:04:06;15.90;99.90
52675;DHT22;38569;52.722;6.440;2022-07-22T05:06:32;15.90;99.90
52675;DHT22;38569;52.722;6.440;2022-07-22T05:08:58;15.90;99.90
52675;DHT22;38569;52.722;6.440;2022-07-22T05:11:23;16.00;99.90
52675;DHT22;38569;52.722;6.440;2022-07-22T05:13:49;16.10;99.90
52675;DHT22;38569;52.722;6.440;2022-07-22T05:16:15;16.00;99.90
52675;DHT22;38569;52.722;6.440;2022-07-22T05:18:40;16.10;99.90
52675;DHT22;38569;52.722;6.440;2022-07-22T05:21:06;16.10;99.90
52675;DHT22;38569;52.722;6.440;2022-07-22T05:23:32;16.10;99.90
52675;DHT22;38569;52.722;6.440;2022-07-22T05:25:57;16.20;99.90
52675;DHT22;38569;52.722;6.440;2022-07-22T05:28:23;16.20;99.90
52675;DHT22;38569;52.722;6.440;2022-07-22T05:30:49;16.30;99.90
52675;DHT22;38569;52.722;6.440;2022-07-22T05:33:15;16.40;99.90
52675;DHT22;38569;52.722;6.440;2022-07-22T05:35:41;16.30;99.90
52675;DHT22;38569;52.722;6.440;2022-07-22T05:38:07;16.30;99.90
52675;DHT22;38569;52.722;6.440;2022-07-22T05:40:32;16.30;99.90
52675;DHT22;38569;52.722;6.440;2022-07-22T05:42:59;16.30;99.90
52675;DHT22;38569;52.722;6.440;2022-07-22T05:45:24;16.40;99.90
52675;DHT22;38569;52.722;6.440;2022-07-22T05:47:50;16.40;99.90
52675;DHT22;38569;52.722;6.440;2022-07-22T05:50:16;16.40;99.90
52675;DHT22;38569;52.722;6.440;2022-07-22T05:52:41;16.50;99.90
52675;DHT22;38569;52.722;6.440;2022-07-22T05:55:08;16.50;99.90
52675;DHT22;38569;52.722;6.440;2022-07-22T05:57:35;16.70;99.90
52675;DHT22;38569;52.722;6.440;2022-07-22T06:00:02;16.80;99.90
52675;DHT22;38569;52.722;6.440;2022-07-22T06:02:28;16.90;99.90
52675;DHT22;38569;52.722;6.440;2022-07-22T06:04:54;16.90;99.90
52675;DHT22;38569;52.722;6.440;2022-07-22T06:07:20;17.00;99.90
52675;DHT22;38569;52.722;6.440;2022-07-22T06:09:46;17.00;99.90
52675;DHT22;38569;52.722;6.440;2022-07-22T06:12:12;17.10;99.90
52675;DHT22;38569;52.722;6.440;2022-07-22T06:14:37;17.20;99.90
52675;DHT22;38569;52.722;6.440;2022-07-22T06:17:03;17.30;99.90
52675;DHT22;38569;52.722;6.440;2022-07-22T06:19:29;17.30;99.90
52675;DHT22;38569;52.722;6.440;2022-07-22T06:21:56;17.30;99.90
52675;DHT22;38569;52.722;6.440;2022-07-22T06:24:21;17.20;99.90
52675;DHT22;38569;52.722;6.440;2022-07-22T06:26:47;17.20;99.90
52675;DHT22;38569;52.722;6.440;2022-07-22T06:29:14;17.30;99.90
52675;DHT22;38569;52.722;6.440;2022-07-22T06:31:40;17.40;99.90
52675;DHT22;38569;52.722;6.440;2022-07-22T06:34:06;17.40;99.90
52675;DHT22;38569;52.722;6.440;2022-07-22T06:36:32;17.50;99.90
52675;DHT22;38569;52.722;6.440;2022-07-22T06:38:58;17.50;99.90
52675;DHT22;38569;52.722;6.440;2022-07-22T06:41:24;17.50;99.90
52675;DHT22;38569;52.722;6.440;2022-07-22T06:43:50;17.50;99.90
52675;DHT22;38569;52.722;6.440;2022-07-22T06:46:16;17.50;99.90
52675;DHT22;38569;52.722;6.440;2022-07-22T06:48:42;17.60;99.90
52675;DHT22;38569;52.722;6.440;2022-07-22T06:51:07;17.60;99.90
52675;DHT22;38569;52.722;6.440;2022-07-22T06:53:34;17.70;99.90
52675;DHT22;38569;52.722;6.440;2022-07-22T06:55:59;17.80;99.90
52675;DHT22;38569;52.722;6.440;2022-07-22T06:58:25;18.00;99.90
52675;DHT22;38569;52.722;6.440;2022-07-22T07:00:51;18.00;99.90
52675;DHT22;38569;52.722;6.440;2022-07-22T07:03:16;18.10;99.90
52675;DHT22;38569;52.722;6.440;2022-07-22T07:05:42;18.20;99.90
52675;DHT22;38569;52.722;6.440;2022-07-22T07:08:08;18.20;99.90
52675;DHT22;38569;52.722;6.440;2022-07-22T07:10:34;18.20;99.90
52675;DHT22;38569;52.722;6.440;2022-07-22T07:13:00;18.20;99.90
52675;DHT22;38569;52.722;6.440;2022-07-22T07:15:26;18.10;99.90
52675;DHT22;38569;52.722;6.440;2022-07-22T07:17:54;18.10;99.90
52675;DHT22;38569;52.722;6.440;2022-07-22T07:20:20;18.20;99.90
52675;DHT22;38569;52.722;6.440;2022-07-22T07:22:46;18.20;99.90
52675;DHT22;38569;52.722;6.440;2022-07-22T07:25:12;18.10;99.90
52675;DHT22;38569;52.722;6.440;2022-07-22T07:27:38;18.10;99.90
52675;DHT22;38569;52.722;6.440;2022-07-22T07:30:05;18.10;99.90
52675;DHT22;38569;52.722;6.440;2022-07-22T07:32:31;18.00;99.90
52675;DHT22;38569;52.722;6.440;2022-07-22T07:34:56;18.10;99.90
52675;DHT22;38569;52.722;6.440;2022-07-22T07:37:22;18.20;99.90
52675;DHT22;38569;52.722;6.440;2022-07-22T07:39:48;18.30;99.90
52675;DHT22;38569;52.722;6.440;2022-07-22T07:42:14;18.30;99.90
52675;DHT22;38569;52.722;6.440;2022-07-22T07:44:40;18.50;99.90
52675;DHT22;38569;52.722;6.440;2022-07-22T07:47:05;18.70;99.90
52675;DHT22;38569;52.722;6.440;2022-07-22T07:49:31;18.90;99.90
52675;DHT22;38569;52.722;6.440;2022-07-22T07:51:57;19.00;99.90
52675;DHT22;38569;52.722;6.440;2022-07-22T07:54:23;19.10;99.90
52675;DHT22;38569;52.722;6.440;2022-07-22T07:56:48;19.30;99.90
52675;DHT22;38569;52.722;6.440;2022-07-22T07:59:14;19.40;99.90
52675;DHT22;38569;52.722;6.440;2022-07-22T08:01:42;19.60;99.90
52675;DHT22;38569;52.722;6.440;2022-07-22T08:04:08;19.60;99.90
52675;DHT22;38569;52.722;6.440;2022-07-22T08:06:34;19.80;99.90
52675;DHT22;38569;52.722;6.440;2022-07-22T08:08:59;19.90;99.90
52675;DHT22;38569;52.722;6.440;2022-07-22T08:11:25;20.00;99.90
52675;DHT22;38569;52.722;6.440;2022-07-22T08:13:51;20.10;99.90
52675;DHT22;38569;52.722;6.440;2022-07-22T08:16:17;19.90;99.90
52675;DHT22;38569;52.722;6.440;2022-07-22T08:18:43;19.80;99.90
52675;DHT22;38569;52.722;6.440;2022-07-22T08:21:08;19.90;99.90
52675;DHT22;38569;52.722;6.440;2022-07-22T08:23:34;20.00;99.90
52675;DHT22;38569;52.722;6.440;2022-07-22T08:26:00;20.00;99.90
52675;DHT22;38569;52.722;6.440;2022-07-22T08:28:26;20.10;99.90
52675;DHT22;38569;52.722;6.440;2022-07-22T08:30:52;20.10;99.90
52675;DHT22;38569;52.722;6.440;2022-07-22T08:33:18;20.20;99.90
52675;DHT22;38569;52.722;6.440;2022-07-22T08:35:44;20.20;99.90
52675;DHT22;38569;52.722;6.440;2022-07-22T08:38:10;20.20;99.90
52675;DHT22;38569;52.722;6.440;2022-07-22T08:40:36;20.10;99.90
52675;DHT22;38569;52.722;6.440;2022-07-22T08:43:02;20.20;99.90
52675;DHT22;38569;52.722;6.440;2022-07-22T08:45:31;20.20;99.90
52675;DHT22;38569;52.722;6.440;2022-07-22T08:47:57;20.40;99.90
52675;DHT22;38569;52.722;6.440;2022-07-22T08:50:29;20.40;99.90
52675;DHT22;38569;52.722;6.440;2022-07-22T08:52:56;20.50;99.90
52675;DHT22;38569;52.722;6.440;2022-07-22T08:55:22;20.60;99.90
52675;DHT22;38569;52.722;6.440;2022-07-22T08:57:48;20.70;99.90
52675;DHT22;38569;52.722;6.440;2022-07-22T09:00:17;20.70;99.90
52675;DHT22;38569;52.722;6.440;2022-07-22T09:02:43;20.80;99.90
52675;DHT22;38569;52.722;6.440;2022-07-22T09:05:11;20.80;99.90
52675;DHT22;38569;52.722;6.440;2022-07-22T09:07:41;20.80;99.90
52675;DHT22;38569;52.722;6.440;2022-07-22T09:10:14;21.00;99.90
52675;DHT22;38569;52.722;6.440;2022-07-22T09:13:00;21.10;99.90
52675;DHT22;38569;52.722;6.440;2022-07-22T09:15:28;21.10;99.90
52675;DHT22;38569;52.722;6.440;2022-07-22T09:17:54;21.00;99.90
52675;DHT22;38569;52.722;6.440;2022-07-22T09:20:20;20.90;99.90
52675;DHT22;38569;52.722;6.440;2022-07-22T09:22:48;20.90;99.90
52675;DHT22;38569;52.722;6.440;2022-07-22T09:25:29;20.70;99.90
52675;DHT22;38569;52.722;6.440;2022-07-22T09:30:35;20.60;99.90
52675;DHT22;38569;52.722;6.440;2022-07-22T09:33:02;20.80;99.90
52675;DHT22;38569;52.722;6.440;2022-07-22T09:35:28;20.70;99.90
52675;DHT22;38569;52.722;6.440;2022-07-22T09:38:02;20.70;99.90
52675;DHT22;38569;52.722;6.440;2022-07-22T09:40:33;20.70;99.90
52675;DHT22;38569;52.722;6.440;2022-07-22T09:43:09;20.70;99.90
52675;DHT22;38569;52.722;6.440;2022-07-22T09:45:50;20.70;99.90
52675;DHT22;38569;52.722;6.440;2022-07-22T09:48:17;20.80;99.90
52675;DHT22;38569;52.722;6.440;2022-07-22T09:50:44;20.70;99.90
52675;DHT22;38569;52.722;6.440;2022-07-22T09:53:10;20.70;99.90
52675;DHT22;38569;52.722;6.440;2022-07-22T09:55:38;20.70;99.90
52675;DHT22;38569;52.722;6.440;2022-07-22T09:58:05;20.80;99.90
52675;DHT22;38569;52.722;6.440;2022-07-22T10:00:35;20.80;99.90
52675;DHT22;38569;52.722;6.440;2022-07-22T10:03:03;20.70;99.90
52675;DHT22;38569;52.722;6.440;2022-07-22T10:05:32;20.80;99.90
52675;DHT22;38569;52.722;6.440;2022-07-22T10:08:00;20.90;99.90
52675;DHT22;38569;52.722;6.440;2022-07-22T10:10:29;20.80;99.90
52675;DHT22;38569;52.722;6.440;2022-07-22T10:12:56;20.90;99.90
52675;DHT22;38569;52.722;6.440;2022-07-22T10:15:24;20.70;99.90
52675;DHT22;38569;52.722;6.440;2022-07-22T10:17:55;20.70;99.90
52675;DHT22;38569;52.722;6.440;2022-07-22T10:20:24;21.00;99.90
52675;DHT22;38569;52.722;6.440;2022-07-22T10:22:56;21.60;99.90
52675;DHT22;38569;52.722;6.440;2022-07-22T10:25:26;21.80;99.90
52675;DHT22;38569;52.722;6.440;2022-07-22T10:28:02;22.20;99.90
52675;DHT22;38569;52.722;6.440;2022-07-22T10:30:33;22.80;99.90
52675;DHT22;38569;52.722;6.440;2022-07-22T10:33:20;23.20;99.90
52675;DHT22;38569;52.722;6.440;2022-07-22T10:35:57;23.40;97.60
52675;DHT22;38569;52.722;6.440;2022-07-22T10:38:24;23.40;98.80
52675;DHT22;38569;52.722;6.440;2022-07-22T10:43:17;23.90;97.00
52675;DHT22;38569;52.722;6.440;2022-07-22T10:46:02;24.10;97.70
52675;DHT22;38569;52.722;6.440;2022-07-22T10:51:19;24.00;92.60
52675;DHT22;38569;52.722;6.440;2022-07-22T10:53:59;23.30;95.40
52675;DHT22;38569;52.722;6.440;2022-07-22T10:56:31;23.10;95.60
52675;DHT22;38569;52.722;6.440;2022-07-22T10:59:15;22.60;96.30
52675;DHT22;38569;52.722;6.440;2022-07-22T11:01:47;22.50;97.30
52675;DHT22;38569;52.722;6.440;2022-07-22T11:06:40;22.00;99.90
52675;DHT22;38569;52.722;6.440;2022-07-22T11:09:11;22.00;99.90
52675;DHT22;38569;52.722;6.440;2022-07-22T11:11:39;21.70;99.90
52675;DHT22;38569;52.722;6.440;2022-07-22T11:14:27;21.30;99.90
52675;DHT22;38569;52.722;6.440;2022-07-22T11:16:58;21.40;99.90
52675;DHT22;38569;52.722;6.440;2022-07-22T11:19:28;21.20;99.90
52675;DHT22;38569;52.722;6.440;2022-07-22T11:22:00;21.00;99.90
52675;DHT22;38569;52.722;6.440;2022-07-22T11:24:28;21.00;99.90
52675;DHT22;38569;52.722;6.440;2022-07-22T11:26:55;20.80;99.90
52675;DHT22;38569;52.722;6.440;2022-07-22T11:29:33;20.80;99.90
52675;DHT22;38569;52.722;6.440;2022-07-22T11:32:01;20.80;99.90
52675;DHT22;38569;52.722;6.440;2022-07-22T11:34:27;20.70;99.90
52675;DHT22;38569;52.722;6.440;2022-07-22T11:36:54;20.70;99.90
52675;DHT22;38569;52.722;6.440;2022-07-22T11:39:22;20.80;99.90
52675;DHT22;38569;52.722;6.440;2022-07-22T11:41:49;20.70;99.90
52675;DHT22;38569;52.722;6.440;2022-07-22T11:44:21;20.70;99.90
52675;DHT22;38569;52.722;6.440;2022-07-22T11:46:47;20.60;99.90
52675;DHT22;38569;52.722;6.440;2022-07-22T11:49:15;20.40;99.90
52675;DHT22;38569;52.722;6.440;2022-07-22T11:51:41;20.50;99.90
52675;DHT22;38569;52.722;6.440;2022-07-22T11:54:07;20.60;99.90
52675;DHT22;38569;52.722;6.440;2022-07-22T11:56:33;20.70;99.90
52675;DHT22;38569;52.722;6.440;2022-07-22T11:58:59;20.80;99.90
52675;DHT22;38569;52.722;6.440;2022-07-22T12:01:31;21.00;99.90
52675;DHT22;38569;52.722;6.440;2022-07-22T12:04:08;21.10;99.90
52675;DHT22;38569;52.722;6.440;2022-07-22T12:06:36;21.30;99.90
52675;DHT22;38569;52.722;6.440;2022-07-22T12:11:46;21.60;99.90
52675;DHT22;38569;52.722;6.440;2022-07-22T12:14:33;21.60;99.90
52675;DHT22;38569;52.722;6.440;2022-07-22T12:17:01;21.60;99.90
52675;DHT22;38569;52.722;6.440;2022-07-22T12:19:29;21.40;99.90
52675;DHT22;38569;52.722;6.440;2022-07-22T12:22:40;21.70;99.90
52675;DHT22;38569;52.722;6.440;2022-07-22T12:24:57;21.90;99.90
52675;DHT22;38569;52.722;6.440;2022-07-22T12:27:22;22.10;99.90
52675;DHT22;38569;52.722;6.440;2022-07-22T12:29:49;22.30;99.90
52675;DHT22;38569;52.722;6.440;2022-07-22T12:32:26;22.60;99.90
52675;DHT22;38569;52.722;6.440;2022-07-22T12:37:32;22.70;99.40
52675;DHT22;38569;52.722;6.440;2022-07-22T12:40:07;22.90;99.90
52675;DHT22;38569;52.722;6.440;2022-07-22T12:42:41;22.80;98.80
52675;DHT22;38569;52.722;6.440;2022-07-22T12:45:10;22.90;99.90
52675;DHT22;38569;52.722;6.440;2022-07-22T12:47:57;23.10;99.80
52675;DHT22;38569;52.722;6.440;2022-07-22T12:52:56;23.30;99.60
52675;DHT22;38569;52.722;6.440;2022-07-22T12:55:23;23.50;98.90
52675;DHT22;38569;52.722;6.440;2022-07-22T12:57:48;23.30;97.40
52675;DHT22;38569;52.722;6.440;2022-07-22T13:00:26;23.00;97.30
52675;DHT22;38569;52.722;6.440;2022-07-22T13:02:52;23.00;98.40
52675;DHT22;38569;52.722;6.440;2022-07-22T13:05:19;22.80;97.30
52675;DHT22;38569;52.722;6.440;2022-07-22T13:07:45;22.60;98.20
52675;DHT22;38569;52.722;6.440;2022-07-22T13:10:13;22.60;99.40
52675;DHT22;38569;52.722;6.440;2022-07-22T13:12:39;22.60;99.90
52675;DHT22;38569;52.722;6.440;2022-07-22T13:15:05;22.30;99.90
52675;DHT22;38569;52.722;6.440;2022-07-22T13:17:31;22.00;99.90
52675;DHT22;38569;52.722;6.440;2022-07-22T13:19:57;21.70;99.90
52675;DHT22;38569;52.722;6.440;2022-07-22T13:22:23;21.60;99.90
52675;DHT22;38569;52.722;6.440;2022-07-22T13:24:48;21.40;99.90
52675;DHT22;38569;52.722;6.440;2022-07-22T13:27:14;21.40;99.90
52675;DHT22;38569;52.722;6.440;2022-07-22T13:29:41;21.30;99.90
52675;DHT22;38569;52.722;6.440;2022-07-22T13:32:07;21.50;99.90
52675;DHT22;38569;52.722;6.440;2022-07-22T13:34:32;21.50;99.90
52675;DHT22;38569;52.722;6.440;2022-07-22T13:36:58;21.60;99.90
52675;DHT22;38569;52.722;6.440;2022-07-22T13:39:25;21.70;99.90
52675;DHT22;38569;52.722;6.440;2022-07-22T13:41:50;21.60;99.50
52675;DHT22;38569;52.722;6.440;2022-07-22T13:44:16;21.50;99.40
52675;DHT22;38569;52.722;6.440;2022-07-22T13:46:42;21.50;99.80
52675;DHT22;38569;52.722;6.440;2022-07-22T13:49:08;21.80;99.90
52675;DHT22;38569;52.722;6.440;2022-07-22T13:51:34;22.20;99.90
52675;DHT22;38569;52.722;6.440;2022-07-22T13:53:59;22.30;99.50
52675;DHT22;38569;52.722;6.440;2022-07-22T13:56:25;22.40;99.10
52675;DHT22;38569;52.722;6.440;2022-07-22T13:58:51;22.10;98.50
52675;DHT22;38569;52.722;6.440;2022-07-22T14:01:17;22.10;99.00
52675;DHT22;38569;52.722;6.440;2022-07-22T14:03:43;22.40;98.70
52675;DHT22;38569;52.722;6.440;2022-07-22T14:06:09;22.60;99.00
52675;DHT22;38569;52.722;6.440;2022-07-22T14:08:35;23.00;97.10
52675;DHT22;38569;52.722;6.440;2022-07-22T14:11:02;23.20;96.90
52675;DHT22;38569;52.722;6.440;2022-07-22T14:13:28;23.10;96.10
52675;DHT22;38569;52.722;6.440;2022-07-22T14:15:53;22.90;96.30
52675;DHT22;38569;52.722;6.440;2022-07-22T14:18:19;22.60;97.20
52675;DHT22;38569;52.722;6.440;2022-07-22T14:20:45;22.40;97.50
52675;DHT22;38569;52.722;6.440;2022-07-22T14:23:11;22.10;97.20
52675;DHT22;38569;52.722;6.440;2022-07-22T14:25:39;22.00;98.30
52675;DHT22;38569;52.722;6.440;2022-07-22T14:28:05;21.80;98.20
52675;DHT22;38569;52.722;6.440;2022-07-22T14:30:31;22.00;98.40
52675;DHT22;38569;52.722;6.440;2022-07-22T14:32:57;22.10;98.40
52675;DHT22;38569;52.722;6.440;2022-07-22T14:35:23;22.40;98.30
52675;DHT22;38569;52.722;6.440;2022-07-22T14:37:49;22.40;98.00
52675;DHT22;38569;52.722;6.440;2022-07-22T14:40:15;22.10;98.80
52675;DHT22;38569;52.722;6.440;2022-07-22T14:42:40;21.90;99.30
52675;DHT22;38569;52.722;6.440;2022-07-22T14:45:07;21.80;99.30
52675;DHT22;38569;52.722;6.440;2022-07-22T14:47:38;21.80;99.90
52675;DHT22;38569;52.722;6.440;2022-07-22T14:50:05;21.70;99.90
52675;DHT22;38569;52.722;6.440;2022-07-22T14:52:31;21.90;99.90
52675;DHT22;38569;52.722;6.440;2022-07-22T14:54:57;21.80;99.90
52675;DHT22;38569;52.722;6.440;2022-07-22T14:57:23;21.70;99.90
52675;DHT22;38569;52.722;6.440;2022-07-22T14:59:49;21.40;99.90
52675;DHT22;38569;52.722;6.440;2022-07-22T15:02:14;21.00;99.90
52675;DHT22;38569;52.722;6.440;2022-07-22T15:04:40;20.90;99.90
52675;DHT22;38569;52.722;6.440;2022-07-22T15:07:06;20.60;99.90
52675;DHT22;38569;52.722;6.440;2022-07-22T15:09:31;20.50;99.90
52675;DHT22;38569;52.722;6.440;2022-07-22T15:11:57;20.40;99.90
52675;DHT22;38569;52.722;6.440;2022-07-22T15:14:23;20.60;99.90
52675;DHT22;38569;52.722;6.440;2022-07-22T15:16:49;20.70;99.90
52675;DHT22;38569;52.722;6.440;2022-07-22T15:19:14;20.80;99.90
52675;DHT22;38569;52.722;6.440;2022-07-22T15:21:40;21.00;99.90
52675;DHT22;38569;52.722;6.440;2022-07-22T15:24:06;20.90;99.90
52675;DHT22;38569;52.722;6.440;2022-07-22T15:26:32;20.80;99.90
52675;DHT22;38569;52.722;6.440;2022-07-22T15:28:58;20.70;99.90
52675;DHT22;38569;52.722;6.440;2022-07-22T15:31:25;20.90;99.90
52675;DHT22;38569;52.722;6.440;2022-07-22T15:33:52;21.20;99.90
52675;DHT22;38569;52.722;6.440;2022-07-22T15:36:18;21.20;99.90
52675;DHT22;38569;52.722;6.440;2022-07-22T15:38:44;21.00;99.90
52675;DHT22;38569;52.722;6.440;2022-07-22T15:41:10;20.80;99.90
52675;DHT22;38569;52.722;6.440;2022-07-22T15:43:36;20.60;99.90
52675;DHT22;38569;52.722;6.440;2022-07-22T15:46:05;20.70;99.90
52675;DHT22;38569;52.722;6.440;2022-07-22T15:48:31;20.80;99.90